Time;durP1;ratioP1;P1;durP2;ratioP2;P2;SDS_P1;SDS_P2;PMS_P1;PMS_P2;Temp;Humidity;BMP_temperature;BMP_pressure;BME280_temperature;BME280_humidity;BME280_pressure;Samples;Min_cycle;Max_cycle;Signal;HPM_P1;HPM_P2
2022/07/20 00:00:30;;;;;;;6.30;4.18;;;;;;;;;;5032130;27;97348;-74
2022/07/20 00:02:56;;;;;;;13.95;4.50;;;;;;;;;;5031219;27;97327;-74
2022/07/20 00:05:22;;;;;;;11.02;4.28;;;;;;;;;;5012892;28;95498;-74
2022/07/20 00:07:49;;;;;;;18.38;4.13;;;;;;;;;;5012092;27;96802;-74
2022/07/20 00:13:00;;;;;;;7.80;3.80;;;;;;;;;;5031163;27;96772;-74
2022/07/20 00:15:26;;;;;;;7.28;4.18;;;;;;;;;;5031170;28;97756;-74
2022/07/20 00:17:53;;;;;;;10.85;4.15;;;;;;;;;;5032957;27;95459;-74
2022/07/20 00:20:19;;;;;;;14.73;4.47;;;;;;;;;;5031628;28;96828;-75
2022/07/20 00:22:47;;;;;;;8.38;3.80;;;;;;;;;;5030584;28;97312;-74
2022/07/20 00:25:13;;;;;;;8.63;3.75;;;;;;;;;;5030459;27;96339;-74
2022/07/20 00:27:39;;;;;;;24.80;4.43;;;;;;;;;;5022920;28;95805;-74
2022/07/20 00:30:06;;;;;;;9.10;3.72;;;;;;;;;;5029754;28;97228;-74
2022/07/20 00:32:36;;;;;;;6.30;3.83;;;;;;;;;;5031992;27;96361;-75
2022/07/20 00:35:04;;;;;;;12.73;4.28;;;;;;;;;;5012300;28;97555;-74
2022/07/20 00:37:36;;;;;;;5.53;3.75;;;;;;;;;;5014875;28;95316;-75
2022/07/20 00:40:04;;;;;;;7.57;3.72;;;;;;;;;;5014320;27;97149;-74
2022/07/20 00:42:30;;;;;;;6.43;3.63;;;;;;;;;;5012668;27;97590;-74
2022/07/20 00:44:56;;;;;;;11.48;4.45;;;;;;;;;;5011669;28;95847;-75
2022/07/20 00:47:23;;;;;;;9.45;4.22;;;;;;;;;;5011497;28;95888;-75
2022/07/20 00:49:49;;;;;;;7.88;3.65;;;;;;;;;;5011442;28;97402;-74
2022/07/20 00:52:15;;;;;;;8.57;4.43;;;;;;;;;;5014673;28;95443;-74
2022/07/20 00:54:44;;;;;;;9.27;4.30;;;;;;;;;;5015076;27;97323;-74
2022/07/20 00:57:10;;;;;;;7.85;4.10;;;;;;;;;;5012455;27;95461;-74
2022/07/20 00:59:36;;;;;;;6.38;4.00;;;;;;;;;;5011799;28;95661;-74
2022/07/20 01:02:03;;;;;;;8.10;4.03;;;;;;;;;;5027844;27;97622;-74
2022/07/20 01:04:29;;;;;;;9.70;4.45;;;;;;;;;;5031733;27;96468;-74
2022/07/20 01:06:56;;;;;;;6.53;4.00;;;;;;;;;;5031817;27;96808;-75
2022/07/20 01:09:22;;;;;;;9.48;3.85;;;;;;;;;;5034268;27;97210;-74
2022/07/20 01:11:48;;;;;;;8.57;3.88;;;;;;;;;;5035231;27;95496;-75
2022/07/20 01:14:15;;;;;;;9.23;4.50;;;;;;;;;;5052239;27;97279;-74
2022/07/20 01:16:41;;;;;;;12.15;5.15;;;;;;;;;;5032703;27;95158;-75
2022/07/20 01:19:07;;;;;;;10.15;4.50;;;;;;;;;;5033705;27;96946;-74
2022/07/20 01:21:40;;;;;;;9.23;4.75;;;;;;;;;;5054552;27;97362;-74
2022/07/20 01:24:10;;;;;;;10.75;4.75;;;;;;;;;;5027643;27;95267;-75
2022/07/20 01:26:37;;;;;;;11.07;4.57;;;;;;;;;;5029546;27;96860;-75
2022/07/20 01:29:04;;;;;;;14.00;5.18;;;;;;;;;;5034985;27;97421;-75
2022/07/20 01:31:30;;;;;;;8.48;4.93;;;;;;;;;;5035267;27;95303;-74
2022/07/20 01:33:57;;;;;;;8.82;4.60;;;;;;;;;;5033967;27;95722;-74
2022/07/20 01:36:23;;;;;;;13.07;4.88;;;;;;;;;;5022700;27;97348;-74
2022/07/20 01:38:49;;;;;;;8.07;4.85;;;;;;;;;;5020043;27;97132;-75
2022/07/20 01:41:16;;;;;;;13.10;4.45;;;;;;;;;;5033742;27;97610;-75
2022/07/20 01:43:43;;;;;;;11.95;4.97;;;;;;;;;;5035052;27;95358;-74
2022/07/20 01:46:09;;;;;;;9.18;5.00;;;;;;;;;;5037943;27;96902;-75
2022/07/20 01:48:36;;;;;;;10.75;4.88;;;;;;;;;;5014179;28;97306;-74
2022/07/20 01:51:02;;;;;;;12.73;4.90;;;;;;;;;;5023028;27;96034;-74
2022/07/20 01:53:28;;;;;;;12.25;4.90;;;;;;;;;;5035823;27;96917;-75
2022/07/20 01:55:55;;;;;;;12.80;4.68;;;;;;;;;;5055582;27;97226;-74
2022/07/20 01:58:21;;;;;;;7.13;4.32;;;;;;;;;;5038522;27;95398;-75
2022/07/20 02:00:48;;;;;;;12.35;4.63;;;;;;;;;;5025308;27;96334;-75
2022/07/20 02:03:15;;;;;;;10.55;4.32;;;;;;;;;;5023346;27;95313;-74
2022/07/20 02:05:41;;;;;;;13.40;4.40;;;;;;;;;;5027526;27;97316;-74
2022/07/20 02:08:08;;;;;;;8.70;4.28;;;;;;;;;;5018298;27;97380;-75
2022/07/20 02:10:34;;;;;;;12.52;4.85;;;;;;;;;;5034455;28;95320;-75
2022/07/20 02:13:01;;;;;;;10.75;4.60;;;;;;;;;;5035686;27;97072;-75
2022/07/20 02:18:12;;;;;;;15.10;4.53;;;;;;;;;;5030052;27;96535;-75
2022/07/20 02:20:39;;;;;;;8.10;4.28;;;;;;;;;;5017411;28;96958;-75
2022/07/20 02:23:06;;;;;;;12.45;4.97;;;;;;;;;;5032148;28;95563;-75
2022/07/20 02:25:34;;;;;;;10.82;4.70;;;;;;;;;;5044657;27;96821;-74
2022/07/20 02:28:05;;;;;;;7.93;4.15;;;;;;;;;;5018963;27;97571;-74
2022/07/20 02:30:31;;;;;;;9.43;4.15;;;;;;;;;;5013952;28;95448;-74
2022/07/20 02:32:58;;;;;;;8.70;4.35;;;;;;;;;;5022437;27;96856;-74
2022/07/20 02:35:24;;;;;;;10.52;4.15;;;;;;;;;;5013822;27;98797;-74
2022/07/20 02:37:50;;;;;;;6.90;4.43;;;;;;;;;;5013468;28;95420;-74
2022/07/20 02:40:17;;;;;;;7.57;4.28;;;;;;;;;;5023206;27;96711;-74
2022/07/20 02:42:43;;;;;;;10.77;4.93;;;;;;;;;;5039457;27;95881;-73
2022/07/20 02:45:10;;;;;;;11.40;4.53;;;;;;;;;;5014987;27;96682;-74
2022/07/20 02:47:43;;;;;;;9.23;4.95;;;;;;;;;;5026541;27;97684;-74
2022/07/20 02:50:11;;;;;;;9.43;4.60;;;;;;;;;;5034538;27;95482;-74
2022/07/20 02:52:41;;;;;;;7.28;4.15;;;;;;;;;;5033726;27;96749;-75
2022/07/20 02:55:08;;;;;;;9.07;4.82;;;;;;;;;;5031273;27;97266;-74
2022/07/20 02:57:34;;;;;;;14.35;4.85;;;;;;;;;;5013119;27;96155;-74
2022/07/20 03:00:01;;;;;;;11.82;5.15;;;;;;;;;;5013863;28;97005;-74
2022/07/20 03:02:27;;;;;;;11.35;5.30;;;;;;;;;;5021979;27;97426;-75
2022/07/20 03:04:53;;;;;;;12.02;4.80;;;;;;;;;;5043563;27;96621;-75
2022/07/20 03:07:20;;;;;;;11.20;5.13;;;;;;;;;;5011628;28;97371;-73
2022/07/20 03:09:46;;;;;;;14.68;4.72;;;;;;;;;;5013748;28;94925;-74
2022/07/20 03:12:12;;;;;;;8.40;4.70;;;;;;;;;;5040854;27;96219;-74
2022/07/20 03:14:38;;;;;;;16.85;5.13;;;;;;;;;;5053256;27;97343;-74
2022/07/20 03:17:05;;;;;;;16.75;6.03;;;;;;;;;;5053461;27;96701;-74
2022/07/20 03:19:31;;;;;;;18.17;5.88;;;;;;;;;;5053251;27;97168;-74
2022/07/20 03:21:57;;;;;;;16.75;6.50;;;;;;;;;;5029513;27;97388;-74
2022/07/20 03:24:24;;;;;;;16.30;7.00;;;;;;;;;;5015950;28;95079;-74
2022/07/20 03:26:50;;;;;;;20.58;7.82;;;;;;;;;;5037523;27;97360;-74
2022/07/20 03:29:16;;;;;;;18.65;8.85;;;;;;;;;;5014775;27;95584;-74
2022/07/20 03:31:43;;;;;;;14.18;8.50;;;;;;;;;;5012650;28;96862;-74
2022/07/20 03:34:09;;;;;;;18.65;9.40;;;;;;;;;;5041002;27;97654;-74
2022/07/20 03:36:36;;;;;;;16.80;9.98;;;;;;;;;;5020309;27;95352;-75
2022/07/20 03:39:02;;;;;;;18.95;10.73;;;;;;;;;;5052681;27;96792;-75
2022/07/20 03:41:28;;;;;;;20.92;10.98;;;;;;;;;;5052533;27;97468;-75
2022/07/20 03:43:55;;;;;;;22.08;11.52;;;;;;;;;;5032721;27;95348;-75
2022/07/20 03:46:21;;;;;;;21.20;12.40;;;;;;;;;;5021319;27;97024;-75
2022/07/20 03:48:47;;;;;;;32.33;13.82;;;;;;;;;;5047148;27;95203;-75
2022/07/20 03:51:14;;;;;;;29.20;13.38;;;;;;;;;;5029730;27;96921;-75
2022/07/20 03:53:40;;;;;;;29.80;14.38;;;;;;;;;;5017902;27;96640;-75
2022/07/20 03:56:10;;;;;;;26.25;15.02;;;;;;;;;;5037798;27;95270;-75
2022/07/20 03:58:37;;;;;;;30.92;15.73;;;;;;;;;;5038753;27;95965;-75
2022/07/20 04:01:03;;;;;;;28.58;14.95;;;;;;;;;;5031825;27;96342;-75
2022/07/20 04:03:29;;;;;;;26.90;15.40;;;;;;;;;;5037812;27;95003;-74
2022/07/20 04:05:56;;;;;;;27.48;15.02;;;;;;;;;;5017821;27;95597;-75
2022/07/20 04:08:22;;;;;;;33.50;15.55;;;;;;;;;;5051949;27;96940;-75
2022/07/20 04:10:48;;;;;;;26.33;14.30;;;;;;;;;;5021696;27;96885;-75
2022/07/20 04:13:15;;;;;;;27.75;15.02;;;;;;;;;;5028102;27;96488;-74
2022/07/20 04:15:41;;;;;;;30.70;14.75;;;;;;;;;;5011720;28;95534;-75
2022/07/20 04:18:08;;;;;;;28.17;14.85;;;;;;;;;;5011868;28;95650;-74
2022/07/20 04:20:34;;;;;;;27.42;16.90;;;;;;;;;;5013642;28;97319;-74
2022/07/20 04:23:01;;;;;;;29.45;16.58;;;;;;;;;;5031978;28;95485;-74
2022/07/20 04:25:27;;;;;;;32.90;16.30;;;;;;;;;;5012829;27;96811;-74
2022/07/20 21:02:28;;;;;;;22.48;11.80;;;;;;;;;;5050175;27;95251;-75
2022/07/20 21:05:02;;;;;;;18.33;11.50;;;;;;;;;;5041982;27;97241;-75
2022/07/20 21:07:29;;;;;;;22.20;13.10;;;;;;;;;;5006188;27;95443;-74
2022/07/20 21:09:56;;;;;;;20.08;12.63;;;;;;;;;;5011769;27;96748;-75
2022/07/20 21:12:23;;;;;;;24.58;12.98;;;;;;;;;;5021733;27;97336;-75
2022/07/20 21:14:49;;;;;;;17.08;11.88;;;;;;;;;;5010557;27;95191;-75
2022/07/20 21:17:16;;;;;;;25.20;14.43;;;;;;;;;;5015112;27;96954;-73
2022/07/20 21:19:42;;;;;;;20.55;12.35;;;;;;;;;;5023374;27;97690;-73
2022/07/20 21:22:09;;;;;;;21.27;13.20;;;;;;;;;;5009785;27;96072;-73
2022/07/20 21:24:36;;;;;;;19.67;12.88;;;;;;;;;;5006201;28;97872;-75
2022/07/20 21:27:04;;;;;;;20.08;13.27;;;;;;;;;;5012363;27;95576;-75
2022/07/20 21:29:31;;;;;;;20.58;13.02;;;;;;;;;;5013162;27;96732;-74
2022/07/20 21:31:57;;;;;;;22.38;13.55;;;;;;;;;;5031129;27;96054;-74
2022/07/20 21:34:24;;;;;;;22.95;14.27;;;;;;;;;;5023887;27;95174;-73
2022/07/20 21:36:51;;;;;;;26.13;14.23;;;;;;;;;;5023419;27;97092;-73
2022/07/20 21:39:18;;;;;;;23.92;14.10;;;;;;;;;;5030266;27;97888;-74
2022/07/20 21:41:44;;;;;;;21.83;14.57;;;;;;;;;;5033813;27;95953;-73
2022/07/20 21:44:12;;;;;;;20.15;14.13;;;;;;;;;;5015013;27;96797;-73
2022/07/20 21:46:39;;;;;;;24.65;15.00;;;;;;;;;;5007904;27;95361;-74
2022/07/20 21:49:05;;;;;;;23.52;15.05;;;;;;;;;;5016691;27;96836;-74
2022/07/20 21:51:32;;;;;;;19.48;13.63;;;;;;;;;;5014668;27;96777;-73
2022/07/20 21:53:58;;;;;;;22.95;14.10;;;;;;;;;;5039095;27;95540;-73
2022/07/20 21:56:25;;;;;;;22.38;14.35;;;;;;;;;;5006736;27;95337;-74
2022/07/20 21:58:58;;;;;;;22.95;14.23;;;;;;;;;;5015728;27;99494;-74
2022/07/20 22:01:25;;;;;;;19.30;13.85;;;;;;;;;;5020880;27;95512;-74
2022/07/20 22:03:51;;;;;;;19.08;13.45;;;;;;;;;;5007193;28;96847;-73
2022/07/20 22:06:17;;;;;;;19.70;13.82;;;;;;;;;;5011046;27;97255;-74
2022/07/20 22:08:44;;;;;;;17.77;13.07;;;;;;;;;;5015865;27;96797;-73
2022/07/20 22:11:11;;;;;;;20.88;12.32;;;;;;;;;;5006685;27;97673;-74
2022/07/20 22:13:37;;;;;;;20.52;12.30;;;;;;;;;;4994007;28;95451;-74
2022/07/20 22:16:04;;;;;;;21.00;11.60;;;;;;;;;;4994461;28;97271;-74
2022/07/20 22:18:31;;;;;;;20.42;12.05;;;;;;;;;;4993993;28;97658;-74
2022/07/20 22:20:57;;;;;;;16.23;10.10;;;;;;;;;;4993996;28;95299;-73
2022/07/20 22:23:24;;;;;;;13.27;9.80;;;;;;;;;;4994156;28;97023;-74
2022/07/20 22:25:50;;;;;;;16.98;9.88;;;;;;;;;;4993907;28;96990;-74
2022/07/20 22:28:17;;;;;;;15.15;9.40;;;;;;;;;;5012165;28;95507;-75
2022/07/20 22:30:44;;;;;;;17.15;11.27;;;;;;;;;;4994641;28;98040;-75
2022/07/20 22:33:12;;;;;;;20.05;11.57;;;;;;;;;;4993821;28;95536;-76
2022/07/20 22:35:40;;;;;;;16.15;11.25;;;;;;;;;;4993910;28;97591;-76
2022/07/20 22:38:07;;;;;;;18.70;11.00;;;;;;;;;;4993141;28;98245;-77
2022/07/20 22:40:34;;;;;;;18.20;11.50;;;;;;;;;;4993983;28;95201;-77
2022/07/20 22:43:01;;;;;;;18.58;11.73;;;;;;;;;;4994537;28;96889;-75
2022/07/20 22:45:28;;;;;;;18.60;11.65;;;;;;;;;;4993051;28;97831;-78
2022/07/20 22:47:54;;;;;;;17.63;12.13;;;;;;;;;;4994978;28;95403;-76
2022/07/20 22:50:21;;;;;;;18.60;12.02;;;;;;;;;;4996655;28;96815;-76
2022/07/20 22:52:47;;;;;;;19.55;11.40;;;;;;;;;;4993386;28;95977;-76
2022/07/20 22:55:13;;;;;;;18.52;11.32;;;;;;;;;;4992712;28;97081;-75
2022/07/20 22:57:46;;;;;;;15.15;10.52;;;;;;;;;;4991988;28;96374;-75
2022/07/20 23:00:15;;;;;;;15.35;10.95;;;;;;;;;;4994419;28;95371;-75
2022/07/20 23:02:43;;;;;;;15.10;10.35;;;;;;;;;;4993585;28;96806;-75
2022/07/20 23:05:10;;;;;;;28.67;11.68;;;;;;;;;;4993462;28;97320;-77
2022/07/20 23:07:40;;;;;;;17.30;10.18;;;;;;;;;;4992449;28;95360;-75
2022/07/20 23:10:08;;;;;;;17.23;11.98;;;;;;;;;;5010635;28;99928;-76
2022/07/20 23:12:35;;;;;;;17.60;11.30;;;;;;;;;;5004609;28;95419;-76
2022/07/20 23:15:02;;;;;;;17.50;11.30;;;;;;;;;;4993245;28;97468;-76
2022/07/20 23:17:28;;;;;;;14.15;10.43;;;;;;;;;;4992636;28;98121;-76
2022/07/20 23:19:55;;;;;;;19.08;11.18;;;;;;;;;;4994263;28;95167;-76
2022/07/20 23:22:21;;;;;;;16.38;11.82;;;;;;;;;;4992913;28;96978;-76
2022/07/20 23:24:51;;;;;;;17.15;11.02;;;;;;;;;;4992122;28;97364;-76
2022/07/20 23:27:17;;;;;;;13.50;10.10;;;;;;;;;;4993820;28;96364;-76
2022/07/20 23:29:44;;;;;;;15.77;10.60;;;;;;;;;;5006568;28;97420;-76
2022/07/20 23:32:11;;;;;;;14.13;10.10;;;;;;;;;;5016148;28;98071;-76
2022/07/20 23:34:38;;;;;;;15.45;10.75;;;;;;;;;;4999663;28;97634;-76
2022/07/20 23:37:04;;;;;;;15.10;10.40;;;;;;;;;;4993193;28;97860;-76
2022/07/20 23:39:31;;;;;;;14.40;10.82;;;;;;;;;;4993029;28;95282;-76
2022/07/20 23:42:17;;;;;;;14.32;11.45;;;;;;;;;;4993236;28;99951;-76
2022/07/20 23:44:43;;;;;;;14.57;11.15;;;;;;;;;;4992515;28;97592;-76
2022/07/20 23:47:10;;;;;;;16.05;10.93;;;;;;;;;;4993295;28;95690;-76
2022/07/20 23:49:36;;;;;;;17.60;12.07;;;;;;;;;;4992544;28;97053;-76
2022/07/20 23:52:03;;;;;;;17.92;12.38;;;;;;;;;;4990958;28;97744;-74
2022/07/20 23:54:30;;;;;;;18.30;12.95;;;;;;;;;;4995805;28;95255;-77
2022/07/20 23:56:56;;;;;;;19.08;12.80;;;;;;;;;;4993712;28;97996;-75
2022/07/20 23:59:24;;;;;;;17.58;11.38;;;;;;;;;;4992101;28;98070;-75
